Time;durP1;ratioP1;P1;durP2;ratioP2;P2;SDS_P1;SDS_P2;PMS_P1;PMS_P2;Temp;Humidity;BMP_temperature;BMP_pressure;BME280_temperature;BME280_humidity;BME280_pressure;Samples;Min_cycle;Max_cycle;Signal;HPM_P1;HPM_P2
2023/08/17 00:00:42;;;;;;;5.80;5.30;;;21.10;99.90;;;;;;5030967;28;20057;-63
2023/08/17 00:03:14;;;;;;;5.72;5.25;;;21.10;99.90;;;;;;5013236;28;20429;-63
2023/08/17 00:05:46;;;;;;;6.18;5.20;;;21.00;99.90;;;;;;5030841;28;20048;-63
2023/08/17 00:08:13;;;;;;;5.80;5.20;;;20.90;99.90;;;;;;5031359;28;20043;-64
2023/08/17 00:10:45;;;;;;;8.48;5.47;;;20.90;99.90;;;;;;5031032;28;20461;-64
2023/08/17 00:13:17;;;;;;;5.43;4.88;;;20.80;99.90;;;;;;5032220;28;20073;-63
2023/08/17 00:15:48;;;;;;;10.38;4.97;;;20.70;99.90;;;;;;5030583;28;20040;-63
2023/08/17 00:18:15;;;;;;;9.10;4.88;;;20.60;99.90;;;;;;5015020;28;20030;-63
2023/08/17 00:20:44;;;;;;;6.35;4.93;;;20.60;99.90;;;;;;5031307;28;20044;-63
2023/08/17 00:23:16;;;;;;;6.45;5.18;;;20.60;99.90;;;;;;5017323;28;20049;-63
2023/08/17 00:25:48;;;;;;;6.82;5.13;;;20.40;99.90;;;;;;5014138;28;20525;-63
2023/08/17 00:28:19;;;;;;;5.72;5.22;;;20.30;99.90;;;;;;5031122;28;20042;-62
2023/08/17 00:30:51;;;;;;;6.20;5.45;;;20.20;99.90;;;;;;5031386;28;20056;-62
2023/08/17 00:33:23;;;;;;;5.93;5.32;;;20.20;99.90;;;;;;5013110;28;20041;-63
2023/08/17 00:35:55;;;;;;;6.82;5.47;;;20.20;99.90;;;;;;5012743;28;20041;-62
2023/08/17 00:38:25;;;;;;;7.90;5.50;;;20.20;99.90;;;;;;5014640;28;20113;-62
2023/08/17 00:40:56;;;;;;;5.50;5.00;;;20.10;99.90;;;;;;5015005;28;20468;-62
2023/08/17 00:43:28;;;;;;;8.50;5.47;;;20.10;99.90;;;;;;5032547;28;20088;-62
2023/08/17 00:46:00;;;;;;;6.20;5.60;;;20.20;99.90;;;;;;5033353;28;20053;-62
2023/08/17 00:48:34;;;;;;;7.22;5.70;;;20.20;99.90;;;;;;5025607;28;20498;-63
2023/08/17 00:51:07;;;;;;;7.22;6.20;;;20.20;99.90;;;;;;5011002;28;20049;-62
2023/08/17 00:53:39;;;;;;;8.20;6.00;;;20.20;99.90;;;;;;5017953;28;20041;-62
2023/08/17 00:56:11;;;;;;;7.43;6.72;;;20.20;99.90;;;;;;5033737;28;20041;-63
2023/08/17 00:58:43;;;;;;;6.28;5.68;;;20.30;99.90;;;;;;5018150;28;20069;-62
2023/08/17 01:01:15;;;;;;;8.10;6.50;;;20.20;99.90;;;;;;5017262;28;20033;-63
2023/08/17 01:03:47;;;;;;;6.95;6.35;;;20.20;99.90;;;;;;5014016;28;20561;-62
2023/08/17 01:06:19;;;;;;;6.10;5.50;;;20.10;99.90;;;;;;5035802;28;20425;-62
2023/08/17 01:08:46;;;;;;;7.85;6.63;;;20.10;99.90;;;;;;5017643;28;20205;-62
2023/08/17 01:11:37;;;;;;;6.97;6.37;;;20.10;99.90;;;;;;5034869;28;20132;-63
2023/08/17 01:14:14;;;;;;;6.93;6.15;;;20.00;99.90;;;;;;5015808;28;20041;-62
2023/08/17 01:16:55;;;;;;;6.55;5.95;;;19.90;99.90;;;;;;5032107;28;20050;-62
2023/08/17 01:19:27;;;;;;;6.50;5.63;;;19.90;99.90;;;;;;5015889;28;20048;-63
2023/08/17 01:22:08;;;;;;;8.20;5.95;;;19.80;99.90;;;;;;5017194;28;20048;-63
2023/08/17 01:24:40;;;;;;;6.68;5.97;;;19.70;99.90;;;;;;5034324;28;20069;-62
2023/08/17 01:27:11;;;;;;;6.82;5.53;;;19.70;99.90;;;;;;5017485;28;20053;-62
2023/08/17 01:29:43;;;;;;;6.15;5.60;;;19.60;99.90;;;;;;5001189;28;20084;-62
2023/08/17 01:32:24;;;;;;;6.03;5.47;;;19.60;99.90;;;;;;5034613;28;20044;-62
2023/08/17 01:35:07;;;;;;;7.20;5.45;;;19.50;99.90;;;;;;5016308;28;20134;-62
2023/08/17 01:37:42;;;;;;;6.93;5.55;;;19.50;99.90;;;;;;5015462;28;20129;-62
2023/08/17 01:40:15;;;;;;;6.82;5.90;;;19.50;99.90;;;;;;5016935;28;20040;-62
2023/08/17 01:42:49;;;;;;;6.75;5.47;;;19.60;99.90;;;;;;5016781;28;20612;-63
2023/08/17 01:45:16;;;;;;;6.45;5.85;;;19.60;99.90;;;;;;5016729;28;20440;-62
2023/08/17 01:47:49;;;;;;;5.88;5.25;;;19.60;99.90;;;;;;5017580;28;20045;-62
2023/08/17 01:50:21;;;;;;;6.07;5.57;;;19.60;99.90;;;;;;5031323;28;20043;-62
2023/08/17 01:52:53;;;;;;;6.32;5.70;;;19.70;99.90;;;;;;5017090;28;20045;-62
2023/08/17 01:55:26;;;;;;;8.07;6.13;;;19.70;99.90;;;;;;5030840;28;20041;-63
2023/08/17 01:57:58;;;;;;;6.35;5.75;;;19.70;99.90;;;;;;5016907;28;20048;-62
2023/08/17 02:00:30;;;;;;;6.35;5.70;;;19.60;99.90;;;;;;5016085;28;20034;-63
2023/08/17 02:03:02;;;;;;;5.85;5.32;;;19.50;99.90;;;;;;5010753;28;20053;-64
2023/08/17 02:05:33;;;;;;;6.60;5.97;;;19.50;99.90;;;;;;5033712;28;20034;-62
2023/08/17 02:08:05;;;;;;;5.93;5.35;;;19.50;99.90;;;;;;5033389;28;20052;-63
2023/08/17 02:10:32;;;;;;;5.97;5.38;;;19.40;99.90;;;;;;5016337;28;20057;-63
2023/08/17 02:13:04;;;;;;;6.50;5.50;;;19.30;99.90;;;;;;5016956;28;20038;-63
2023/08/17 02:15:40;;;;;;;6.20;5.10;;;19.30;99.90;;;;;;5016236;28;20045;-63
2023/08/17 02:18:11;;;;;;;10.40;5.95;;;19.20;99.90;;;;;;5016600;28;20045;-64
2023/08/17 02:20:43;;;;;;;6.03;5.43;;;19.20;99.90;;;;;;5030068;28;20592;-63
2023/08/17 02:23:15;;;;;;;6.07;5.47;;;19.10;99.90;;;;;;5016182;28;20041;-62
2023/08/17 02:25:47;;;;;;;6.35;5.80;;;19.10;99.90;;;;;;5023569;28;20041;-62
2023/08/17 02:28:21;;;;;;;6.35;5.65;;;19.10;99.90;;;;;;5032851;28;20041;-62
2023/08/17 02:30:57;;;;;;;7.07;5.93;;;19.10;99.90;;;;;;5015711;28;20107;-63
2023/08/17 02:33:29;;;;;;;6.60;6.00;;;19.10;99.90;;;;;;5012574;28;20418;-63
2023/08/17 02:36:01;;;;;;;7.65;6.75;;;19.00;99.90;;;;;;5002827;28;20137;-63
2023/08/17 02:38:32;;;;;;;8.70;6.00;;;19.00;99.90;;;;;;5016478;28;20063;-63
2023/08/17 02:41:04;;;;;;;6.80;6.05;;;19.00;99.90;;;;;;5019339;28;20057;-63
2023/08/17 02:43:36;;;;;;;7.43;5.55;;;19.00;99.90;;;;;;5033421;28;20489;-63
2023/08/17 02:46:08;;;;;;;6.35;5.63;;;19.00;99.90;;;;;;5033491;28;20041;-63
2023/08/17 02:48:36;;;;;;;6.35;5.70;;;18.80;99.90;;;;;;5016061;28;20033;-63
2023/08/17 02:51:08;;;;;;;7.05;6.35;;;18.80;99.90;;;;;;5011711;28;20041;-62
2023/08/17 02:53:40;;;;;;;8.82;5.80;;;18.80;99.90;;;;;;5033148;28;20048;-63
2023/08/17 02:56:12;;;;;;;7.32;6.38;;;18.80;99.90;;;;;;5004927;28;20048;-63
2023/08/17 02:58:44;;;;;;;6.80;6.20;;;18.70;99.90;;;;;;5019857;28;20042;-63
2023/08/17 03:01:16;;;;;;;6.15;5.55;;;18.70;99.90;;;;;;5019379;28;20038;-63
2023/08/17 03:03:48;;;;;;;6.90;6.30;;;18.70;99.90;;;;;;5028252;28;20506;-62
2023/08/17 03:06:20;;;;;;;7.43;6.15;;;18.70;99.90;;;;;;5029350;28;20059;-63
2023/08/17 03:08:52;;;;;;;7.63;6.75;;;18.70;99.90;;;;;;5030352;28;20401;-63
2023/08/17 03:11:24;;;;;;;7.25;6.55;;;18.70;99.90;;;;;;5015133;28;20100;-62
2023/08/17 03:14:00;;;;;;;9.40;6.90;;;18.80;99.90;;;;;;4998058;28;20053;-63
2023/08/17 03:16:31;;;;;;;6.88;6.15;;;18.80;99.90;;;;;;5016022;28;20466;-63
2023/08/17 03:19:03;;;;;;;8.63;6.72;;;18.70;99.90;;;;;;5017410;28;20071;-63
2023/08/17 03:21:35;;;;;;;9.65;6.85;;;18.70;99.90;;;;;;5012227;28;20568;-63
2023/08/17 03:24:07;;;;;;;9.50;7.20;;;18.70;99.90;;;;;;5015865;28;20053;-63
2023/08/17 03:26:39;;;;;;;10.20;6.22;;;18.70;99.90;;;;;;5015928;28;20395;-62
2023/08/17 03:29:11;;;;;;;6.10;5.50;;;18.70;99.90;;;;;;5023743;28;20041;-63
2023/08/17 03:31:44;;;;;;;7.90;6.37;;;18.70;99.90;;;;;;4998039;28;20128;-62
2023/08/17 03:34:15;;;;;;;6.00;5.43;;;18.70;99.90;;;;;;5031555;28;20835;-62
2023/08/17 03:36:48;;;;;;;6.97;6.10;;;18.70;99.90;;;;;;5031515;28;20593;-62
2023/08/17 03:39:21;;;;;;;7.63;6.45;;;18.70;99.90;;;;;;4997840;28;20390;-63
2023/08/17 03:41:54;;;;;;;7.80;6.97;;;18.70;99.90;;;;;;5016592;28;20042;-63
2023/08/17 03:44:26;;;;;;;9.98;7.60;;;18.70;99.90;;;;;;5015288;28;20041;-62
2023/08/17 03:46:57;;;;;;;7.30;6.15;;;18.80;99.90;;;;;;5015067;28;20050;-63
2023/08/17 03:49:29;;;;;;;7.30;6.55;;;18.70;99.90;;;;;;5030033;28;20037;-62
2023/08/17 03:52:01;;;;;;;7.68;6.85;;;18.60;99.90;;;;;;5008151;28;20547;-62
2023/08/17 03:54:28;;;;;;;7.32;5.93;;;18.60;99.90;;;;;;5015250;28;20140;-63
2023/08/17 03:56:59;;;;;;;15.32;6.93;;;18.60;99.90;;;;;;5022212;28;20046;-63
2023/08/17 03:59:31;;;;;;;15.45;6.18;;;18.60;99.90;;;;;;5031016;28;20663;-63
2023/08/17 04:02:03;;;;;;;11.35;6.57;;;18.60;99.90;;;;;;5014530;28;20065;-62
2023/08/17 04:04:31;;;;;;;11.40;6.30;;;18.50;99.90;;;;;;5015140;28;20498;-62
2023/08/17 04:07:03;;;;;;;7.30;5.68;;;18.50;99.90;;;;;;5001756;28;20049;-63
2023/08/17 04:09:34;;;;;;;7.93;6.38;;;18.50;99.90;;;;;;5033242;28;20599;-63
2023/08/17 04:12:07;;;;;;;8.30;5.72;;;18.50;99.90;;;;;;5020552;28;20065;-62
2023/08/17 04:14:39;;;;;;;8.83;5.77;;;18.50;99.90;;;;;;5015645;28;20041;-63
2023/08/17 04:17:11;;;;;;;6.63;6.03;;;18.50;99.90;;;;;;5015452;28;21171;-62
2023/08/17 04:19:43;;;;;;;7.93;6.75;;;18.50;99.90;;;;;;5013377;28;20057;-63
2023/08/17 04:22:15;;;;;;;8.73;6.03;;;18.50;99.90;;;;;;5022538;28;20101;-63
2023/08/17 04:24:47;;;;;;;7.47;5.97;;;18.50;99.90;;;;;;5019578;28;20533;-63
2023/08/17 04:27:19;;;;;;;7.57;6.45;;;18.50;99.90;;;;;;5008604;28;20057;-63
2023/08/17 04:29:51;;;;;;;8.52;5.88;;;18.50;99.90;;;;;;5019559;28;20596;-63
2023/08/17 04:32:23;;;;;;;6.72;6.03;;;18.50;99.90;;;;;;5017557;28;20119;-63
2023/08/17 04:34:55;;;;;;;8.02;6.25;;;18.50;99.90;;;;;;5018590;28;20123;-63
2023/08/17 04:37:27;;;;;;;7.30;6.15;;;18.50;99.90;;;;;;5017703;28;20536;-63
2023/08/17 04:39:59;;;;;;;6.85;6.15;;;18.60;99.90;;;;;;5018677;28;20065;-63
2023/08/17 04:42:31;;;;;;;13.98;7.47;;;18.50;99.90;;;;;;5035254;28;20041;-64
2023/08/17 04:44:58;;;;;;;13.07;7.13;;;18.50;99.90;;;;;;5035510;28;20124;-63
2023/08/17 04:47:31;;;;;;;7.60;6.35;;;18.50;99.90;;;;;;5011780;28;20070;-62
2023/08/17 04:50:03;;;;;;;7.93;6.38;;;18.60;99.90;;;;;;5012567;28;20101;-62
2023/08/17 04:52:35;;;;;;;7.63;6.38;;;18.60;99.90;;;;;;5013806;28;20041;-63
2023/08/17 04:55:06;;;;;;;7.40;6.43;;;18.60;99.90;;;;;;5032856;28;20052;-62
2023/08/17 04:57:38;;;;;;;7.35;6.00;;;18.60;99.90;;;;;;5012839;28;20045;-63
2023/08/17 05:00:12;;;;;;;;;;;18.60;99.90;;;;;;5015664;28;20069;-62
2023/08/17 05:02:44;;;;;;;8.55;6.82;;;18.70;99.90;;;;;;4997793;28;19924;-62
2023/08/17 05:05:17;;;;;;;9.52;7.50;;;18.70;99.90;;;;;;5013059;28;20137;-63
2023/08/17 05:07:44;;;;;;;9.73;6.88;;;18.70;99.90;;;;;;5014564;28;20052;-62
2023/08/17 05:10:11;;;;;;;7.68;6.88;;;18.70;99.90;;;;;;5015112;28;20038;-62
2023/08/17 05:12:43;;;;;;;7.68;6.97;;;18.70;99.90;;;;;;4998901;28;20045;-62
2023/08/17 05:15:15;;;;;;;7.43;6.63;;;18.70;99.90;;;;;;5015003;28;20440;-62
2023/08/17 05:17:42;;;;;;;7.28;6.53;;;18.70;99.90;;;;;;5014494;28;20108;-62
2023/08/17 05:20:14;;;;;;;6.75;6.15;;;18.70;99.90;;;;;;5007272;28;20479;-62
2023/08/17 05:22:47;;;;;;;8.25;7.35;;;18.80;99.90;;;;;;5013139;28;20041;-62
2023/08/17 05:25:19;;;;;;;9.77;7.45;;;18.80;99.90;;;;;;5014664;28;20049;-62
2023/08/17 05:27:46;;;;;;;7.40;6.70;;;18.80;99.90;;;;;;5014600;28;20041;-62
2023/08/17 05:30:18;;;;;;;9.13;7.25;;;18.90;99.90;;;;;;4997354;28;20128;-62
2023/08/17 05:32:50;;;;;;;7.95;7.20;;;18.90;99.90;;;;;;5029352;28;20034;-63
2023/08/17 05:35:22;;;;;;;7.47;6.57;;;18.90;99.90;;;;;;4995476;28;20088;-62
2023/08/17 05:37:54;;;;;;;8.63;7.03;;;18.90;99.90;;;;;;5024917;28;20073;-63
2023/08/17 05:40:26;;;;;;;8.30;6.22;;;18.90;99.90;;;;;;5011739;28;20037;-62
2023/08/17 05:42:58;;;;;;;7.32;6.47;;;19.00;99.90;;;;;;5020358;28;20045;-62
2023/08/17 05:45:30;;;;;;;8.35;6.05;;;19.00;99.90;;;;;;5015238;28;20558;-62
2023/08/17 05:48:02;;;;;;;11.30;8.43;;;19.10;99.90;;;;;;4997540;28;20095;-62
2023/08/17 05:50:34;;;;;;;12.38;8.00;;;19.10;99.90;;;;;;5014740;28;20045;-63
2023/08/17 05:53:06;;;;;;;11.35;9.45;;;19.20;99.90;;;;;;5032107;28;20132;-63
2023/08/17 05:55:38;;;;;;;10.85;9.55;;;19.20;99.90;;;;;;5008402;28;20808;-63
2023/08/17 05:58:10;;;;;;;15.80;10.75;;;19.20;99.90;;;;;;5031802;28;20045;-62
2023/08/17 06:00:42;;;;;;;10.77;9.77;;;19.30;99.90;;;;;;5031940;28;20581;-62
2023/08/17 06:03:14;;;;;;;10.90;9.90;;;19.30;99.90;;;;;;5011591;28;20449;-63
2023/08/17 06:05:46;;;;;;;13.27;10.45;;;19.30;99.90;;;;;;5031678;28;20065;-62
2023/08/17 06:08:19;;;;;;;11.02;9.93;;;19.30;99.90;;;;;;5032767;28;20052;-62
2023/08/17 06:10:51;;;;;;;10.10;9.15;;;19.40;99.90;;;;;;5010758;28;20041;-62
2023/08/17 06:13:23;;;;;;;11.32;10.10;;;19.40;99.90;;;;;;5032290;28;20045;-63
2023/08/17 06:15:56;;;;;;;12.50;10.23;;;19.50;99.90;;;;;;5032304;28;20053;-62
2023/08/17 06:18:29;;;;;;;9.65;8.75;;;19.60;99.90;;;;;;5031889;28;20034;-63
2023/08/17 06:21:01;;;;;;;10.15;8.95;;;19.60;99.90;;;;;;5030209;28;20122;-62
2023/08/17 06:23:29;;;;;;;11.63;10.55;;;19.70;99.90;;;;;;5031261;28;20509;-62
2023/08/17 06:26:00;;;;;;;12.93;11.63;;;19.70;99.90;;;;;;5029511;28;20057;-62
2023/08/17 06:28:28;;;;;;;13.25;10.88;;;19.80;99.90;;;;;;5032588;28;20037;-63
2023/08/17 06:30:59;;;;;;;13.43;12.03;;;19.80;99.90;;;;;;5032123;28;20037;-62
2023/08/17 06:33:31;;;;;;;12.77;10.90;;;19.90;99.90;;;;;;4998082;28;20422;-62
2023/08/17 06:36:03;;;;;;;11.90;10.07;;;19.90;99.90;;;;;;5029504;28;20509;-62
2023/08/17 06:38:35;;;;;;;13.30;10.97;;;20.00;99.90;;;;;;5030714;28;20073;-62
2023/08/17 06:41:07;;;;;;;13.77;11.63;;;20.00;99.90;;;;;;5012419;28;20463;-63
2023/08/17 06:43:39;;;;;;;13.48;12.15;;;20.10;99.90;;;;;;5030345;28;20037;-62
2023/08/17 06:46:11;;;;;;;13.15;11.90;;;20.20;99.90;;;;;;5012844;28;20403;-63
2023/08/17 06:48:44;;;;;;;15.63;11.98;;;20.20;99.90;;;;;;5030547;28;20475;-63
2023/08/17 06:51:17;;;;;;;16.08;12.52;;;20.20;99.90;;;;;;5012441;28;20517;-66
2023/08/17 06:53:43;;;;;;;13.70;11.80;;;20.20;99.90;;;;;;5027131;28;20145;-64
2023/08/17 06:56:10;;;;;;;14.32;12.75;;;20.30;99.90;;;;;;5008295;28;20049;-64
2023/08/17 06:58:42;;;;;;;18.58;12.77;;;20.40;99.90;;;;;;5025911;28;20643;-63
2023/08/17 07:01:14;;;;;;;14.90;13.32;;;20.40;99.90;;;;;;4994706;28;20038;-64
2023/08/17 07:03:47;;;;;;;13.23;11.93;;;20.50;99.90;;;;;;5028965;28;20043;-63
2023/08/17 07:06:19;;;;;;;14.85;11.52;;;20.60;99.90;;;;;;5009934;28;20421;-63
2023/08/17 07:08:47;;;;;;;13.45;12.02;;;20.70;99.90;;;;;;5012805;28;20445;-63
2023/08/17 07:11:19;;;;;;;16.40;12.57;;;20.80;99.90;;;;;;5012999;28;20056;-63
2023/08/17 07:13:51;;;;;;;14.18;12.68;;;20.90;99.90;;;;;;5031725;28;20047;-63
2023/08/17 07:16:23;;;;;;;13.60;12.23;;;20.90;99.90;;;;;;5032229;28;20132;-63
2023/08/17 07:18:54;;;;;;;15.57;12.55;;;21.00;99.90;;;;;;5030578;28;20042;-63
2023/08/17 07:21:26;;;;;;;15.50;12.45;;;21.00;99.90;;;;;;5030904;28;20048;-63
2023/08/17 07:24:12;;;;;;;14.38;13.07;;;21.10;99.90;;;;;;5028294;28;20044;-63
2023/08/17 07:26:44;;;;;;;13.52;12.23;;;21.20;99.90;;;;;;5029409;28;20038;-65
2023/08/17 07:29:11;;;;;;;15.60;12.15;;;21.30;99.90;;;;;;5029458;28;20045;-65
2023/08/17 07:31:43;;;;;;;13.27;11.93;;;21.40;99.90;;;;;;5009259;28;20052;-64
2023/08/17 07:34:15;;;;;;;14.23;12.20;;;21.50;99.90;;;;;;5027400;28;20052;-65
2023/08/17 07:36:47;;;;;;;18.25;16.33;;;21.60;99.90;;;;;;5029684;28;20041;-62
2023/08/17 07:39:19;;;;;;;9.65;8.65;;;21.70;99.90;;;;;;5030757;28;20045;-63
2023/08/17 07:41:51;;;;;;;13.00;11.45;;;21.80;99.90;;;;;;5030992;28;20130;-63
2023/08/17 07:44:22;;;;;;;11.93;10.25;;;21.90;99.90;;;;;;5030783;28;20052;-62
2023/08/17 07:46:54;;;;;;;13.27;10.40;;;22.10;99.90;;;;;;5030407;28;20042;-62
2023/08/17 07:49:23;;;;;;;13.50;10.85;;;22.20;99.90;;;;;;5030797;28;20510;-62
2023/08/17 07:51:54;;;;;;;14.95;11.93;;;22.30;99.90;;;;;;5008169;28;20042;-63
2023/08/17 07:54:26;;;;;;;10.88;9.68;;;22.40;99.90;;;;;;5031127;28;20119;-63
2023/08/17 07:56:58;;;;;;;8.95;8.15;;;22.50;99.90;;;;;;5033161;28;20124;-63
2023/08/17 07:59:30;;;;;;;9.70;8.70;;;22.70;99.90;;;;;;5001076;28;20037;-63
2023/08/17 08:02:01;;;;;;;9.55;8.63;;;22.70;99.90;;;;;;5035349;28;20045;-63
2023/08/17 08:04:33;;;;;;;11.70;8.38;;;22.90;99.90;;;;;;5014102;28;20046;-63
2023/08/17 08:07:06;;;;;;;9.82;7.97;;;23.00;99.90;;;;;;5032033;28;20052;-62
2023/08/17 08:09:38;;;;;;;8.07;7.28;;;23.10;99.90;;;;;;5031783;28;20048;-62
2023/08/17 08:12:10;;;;;;;10.32;7.68;;;23.20;99.90;;;;;;5001508;28;20051;-62
2023/08/17 08:14:41;;;;;;;7.28;6.57;;;23.30;99.90;;;;;;5035226;28;20517;-63
2023/08/17 08:17:13;;;;;;;7.00;6.43;;;23.40;99.90;;;;;;5031394;28;20505;-63
2023/08/17 08:19:45;;;;;;;6.93;6.30;;;23.50;99.90;;;;;;4999530;28;20047;-63
2023/08/17 08:22:17;;;;;;;7.00;6.40;;;23.60;99.90;;;;;;5030153;28;20045;-63
2023/08/17 08:24:49;;;;;;;7.35;6.65;;;23.70;99.90;;;;;;5031657;28;20644;-63
2023/08/17 08:27:21;;;;;;;8.00;5.68;;;23.80;99.90;;;;;;5030970;28;20045;-63
2023/08/17 08:29:48;;;;;;;9.25;6.05;;;23.90;99.90;;;;;;5032042;28;20033;-63
2023/08/17 08:32:20;;;;;;;7.40;6.25;;;24.00;99.90;;;;;;5026774;28;20041;-63
2023/08/17 08:34:52;;;;;;;9.30;6.37;;;24.10;99.90;;;;;;5009123;28;20108;-63
2023/08/17 08:37:24;;;;;;;8.48;5.72;;;24.20;99.90;;;;;;5032075;28;20052;-63
2023/08/17 08:39:56;;;;;;;7.60;6.57;;;24.30;99.90;;;;;;5007291;28;20058;-64
2023/08/17 08:42:28;;;;;;;16.45;14.90;;;24.30;99.90;;;;;;5031659;28;20052;-63
2023/08/17 08:45:00;;;;;;;6.32;5.60;;;24.50;99.90;;;;;;5027488;28;20132;-65
2023/08/17 08:47:35;;;;;;;6.65;5.80;;;24.60;99.90;;;;;;5029098;28;20157;-65
2023/08/17 08:50:10;;;;;;;7.97;5.93;;;24.70;99.90;;;;;;5028004;28;20501;-64
2023/08/17 08:52:49;;;;;;;5.78;5.28;;;24.70;99.90;;;;;;5012995;28;20818;-64
2023/08/17 08:55:24;;;;;;;6.18;5.57;;;24.80;99.90;;;;;;5027070;28;20871;-64
2023/08/17 08:57:56;;;;;;;8.25;6.07;;;24.90;99.90;;;;;;5030745;28;20506;-64
2023/08/17 09:00:29;;;;;;;7.20;5.72;;;25.00;99.90;;;;;;5013029;28;20042;-64
2023/08/17 09:03:03;;;;;;;6.68;5.60;;;25.20;99.90;;;;;;5025561;28;20116;-65
2023/08/17 09:05:36;;;;;;;6.82;6.13;;;25.30;99.90;;;;;;5010225;28;20042;-64
2023/08/17 09:08:11;;;;;;;7.20;5.85;;;25.40;99.90;;;;;;5026671;28;20076;-65
2023/08/17 09:10:42;;;;;;;7.28;6.00;;;25.40;99.90;;;;;;5028392;28;20041;-67
2023/08/17 09:13:15;;;;;;;6.68;6.07;;;25.50;99.90;;;;;;5029210;28;20660;-66
2023/08/17 09:15:47;;;;;;;6.22;5.72;;;25.60;99.90;;;;;;5011127;28;20132;-64
2023/08/17 09:18:19;;;;;;;6.07;5.47;;;25.70;99.90;;;;;;5027655;28;20038;-64
2023/08/17 09:20:47;;;;;;;7.78;5.57;;;25.90;99.90;;;;;;5030792;28;20103;-63
2023/08/17 09:23:23;;;;;;;5.65;5.07;;;26.00;99.90;;;;;;5030658;28;20042;-63
2023/08/17 09:25:58;;;;;;;9.70;6.25;;;26.10;99.90;;;;;;5010829;28;20056;-63
2023/08/17 09:28:30;;;;;;;6.55;6.05;;;26.30;99.90;;;;;;5026248;28;20037;-64
2023/08/17 09:31:03;;;;;;;7.65;6.22;;;26.30;99.90;;;;;;5031694;28;20448;-64
2023/08/17 09:33:31;;;;;;;7.80;5.65;;;26.40;99.90;;;;;;5012956;28;20076;-63
2023/08/17 09:36:03;;;;;;;7.60;6.75;;;26.40;99.90;;;;;;5008751;28;20054;-63
2023/08/17 09:38:37;;;;;;;6.18;5.68;;;26.50;99.90;;;;;;5010756;28;20053;-63
2023/08/17 09:41:06;;;;;;;7.13;5.85;;;26.60;99.90;;;;;;5027988;28;20043;-63
2023/08/17 09:43:38;;;;;;;7.00;6.30;;;26.80;99.90;;;;;;5030905;28;20033;-63
2023/08/17 09:46:10;;;;;;;6.65;6.05;;;26.80;99.90;;;;;;5026198;28;20034;-63
2023/08/17 09:48:37;;;;;;;7.03;5.63;;;26.90;99.90;;;;;;5010907;28;20040;-63
2023/08/17 09:51:09;;;;;;;7.00;6.32;;;27.00;99.90;;;;;;5028192;28;20057;-64
2023/08/17 09:53:40;;;;;;;7.90;6.90;;;26.90;99.90;;;;;;4997412;28;20038;-63
2023/08/17 09:56:13;;;;;;;7.07;6.37;;;27.00;99.90;;;;;;5029190;28;20491;-63
2023/08/17 09:58:45;;;;;;;7.13;6.18;;;27.10;99.90;;;;;;5027948;28;20121;-63
2023/08/17 10:01:13;;;;;;;9.60;6.40;;;27.10;99.90;;;;;;5029464;28;20045;-63
2023/08/17 10:03:45;;;;;;;6.93;6.32;;;27.30;99.90;;;;;;5029891;28;20041;-63
2023/08/17 10:06:22;;;;;;;9.05;6.72;;;27.40;99.90;;;;;;5012947;28;20042;-63
2023/08/17 10:08:58;;;;;;;6.57;5.95;;;27.40;99.90;;;;;;5027085;28;20057;-63
2023/08/17 10:11:34;;;;;;;6.63;5.97;;;27.40;99.90;;;;;;5010794;28;20045;-63
2023/08/17 10:14:15;;;;;;;7.63;6.03;;;27.40;99.90;;;;;;5026571;28;20178;-63
2023/08/17 10:16:57;;;;;;;6.18;5.50;;;27.50;99.90;;;;;;5028966;28;20094;-63
2023/08/17 10:19:34;;;;;;;8.30;6.22;;;27.60;99.90;;;;;;5026773;28;20048;-63
2023/08/17 10:22:18;;;;;;;6.15;5.55;;;27.90;99.90;;;;;;4994150;28;20046;-63
2023/08/17 10:24:46;;;;;;;6.70;6.10;;;28.00;99.90;;;;;;5027436;28;20148;-63
2023/08/17 10:27:18;;;;;;;;;;;28.00;99.90;;;;;;5012590;28;20057;-63
2023/08/17 10:29:45;;;;;;;6.72;5.88;;;28.10;99.90;;;;;;5025862;28;19925;-63
2023/08/17 10:32:18;;;;;;;7.73;6.43;;;28.20;99.90;;;;;;5023971;28;20037;-63
2023/08/17 10:34:51;;;;;;;8.82;6.50;;;28.30;99.90;;;;;;5009127;28;20300;-63
2023/08/17 10:37:24;;;;;;;8.18;5.97;;;28.40;99.90;;;;;;5028878;28;20045;-63
2023/08/17 10:39:56;;;;;;;9.15;6.55;;;28.50;99.90;;;;;;5028002;28;20041;-63
2023/08/17 10:42:36;;;;;;;7.15;6.45;;;28.60;99.90;;;;;;5009560;28;20049;-63
2023/08/17 10:45:27;;;;;;;6.45;5.93;;;28.60;99.90;;;;;;5023662;28;20533;-63
2023/08/17 10:48:05;;;;;;;8.40;6.53;;;28.70;99.90;;;;;;5007838;28;20056;-63
2023/08/17 10:50:39;;;;;;;11.00;7.63;;;28.80;99.90;;;;;;5027084;28;20043;-63
2023/08/17 10:53:12;;;;;;;8.13;6.50;;;28.80;99.90;;;;;;5011356;28;20056;-63
2023/08/17 10:55:52;;;;;;;8.35;7.55;;;28.80;99.90;;;;;;5028078;28;20042;-63
2023/08/17 10:58:24;;;;;;;7.75;6.95;;;29.00;99.90;;;;;;5027466;28;20045;-63
2023/08/17 11:00:56;;;;;;;9.38;6.57;;;29.10;99.90;;;;;;5028343;28;20049;-63
2023/08/17 11:03:28;;;;;;;6.88;6.28;;;29.20;99.90;;;;;;5027377;28;20041;-63
2023/08/17 11:05:56;;;;;;;8.65;6.47;;;29.30;99.90;;;;;;5027855;28;20533;-63
2023/08/17 11:08:33;;;;;;;7.63;6.93;;;29.40;99.90;;;;;;5028200;28;20060;-63
2023/08/17 11:11:14;;;;;;;7.45;6.70;;;29.40;99.90;;;;;;5025588;28;20056;-63
2023/08/17 11:13:47;;;;;;;7.68;6.97;;;29.40;99.90;;;;;;5009439;28;20049;-63
2023/08/17 11:16:19;;;;;;;6.63;6.10;;;29.40;99.90;;;;;;5028751;28;20056;-63
2023/08/17 11:18:52;;;;;;;6.97;6.38;;;29.50;99.90;;;;;;5027395;28;20041;-63
2023/08/17 11:21:23;;;;;;;9.27;7.65;;;29.50;99.90;;;;;;5024266;28;20033;-63
2023/08/17 11:23:56;;;;;;;7.03;6.33;;;29.60;99.90;;;;;;5027990;28;20052;-63
2023/08/17 11:26:28;;;;;;;7.03;6.18;;;29.70;99.90;;;;;;5009781;28;20059;-63
2023/08/17 11:29:01;;;;;;;7.37;5.90;;;29.80;99.90;;;;;;5028168;28;20045;-63
2023/08/17 11:31:33;;;;;;;7.10;6.50;;;29.90;99.90;;;;;;5027846;28;20516;-63
2023/08/17 11:34:05;;;;;;;6.32;5.72;;;30.00;99.90;;;;;;5027823;28;20049;-63
2023/08/17 11:36:37;;;;;;;7.05;6.10;;;30.10;99.90;;;;;;5026450;28;20037;-63
2023/08/17 11:39:05;;;;;;;6.10;5.60;;;30.10;99.90;;;;;;5010548;28;20099;-63
2023/08/17 11:41:36;;;;;;;6.40;5.80;;;30.30;99.90;;;;;;5008577;28;20049;-63
2023/08/17 11:44:09;;;;;;;6.75;5.95;;;30.40;99.90;;;;;;5028494;28;20041;-63
2023/08/17 11:46:41;;;;;;;6.10;5.50;;;30.50;99.90;;;;;;5009193;28;20116;-63
2023/08/17 11:49:13;;;;;;;6.20;5.60;;;30.50;99.90;;;;;;5010655;28;20049;-63
2023/08/17 11:51:44;;;;;;;5.90;5.50;;;30.60;99.90;;;;;;5026021;28;20059;-63
2023/08/17 11:54:17;;;;;;;6.20;5.70;;;30.70;99.90;;;;;;5007638;28;20056;-63
2023/08/17 11:56:48;;;;;;;6.35;5.75;;;30.80;99.90;;;;;;5012152;28;20050;-64
2023/08/17 11:59:20;;;;;;;7.05;5.57;;;30.80;99.90;;;;;;5029877;28;20034;-63
2023/08/17 12:01:53;;;;;;;6.10;5.32;;;30.70;99.90;;;;;;5030054;28;20128;-63
2023/08/17 12:04:25;;;;;;;5.37;4.93;;;30.80;99.90;;;;;;5013415;28;20040;-63
2023/08/17 12:06:52;;;;;;;5.80;4.70;;;30.80;99.90;;;;;;5029130;28;20049;-63
2023/08/17 12:09:24;;;;;;;5.50;5.00;;;30.70;99.90;;;;;;5030924;28;20165;-63
2023/08/17 12:12:00;;;;;;;5.90;5.07;;;30.80;99.90;;;;;;5014386;28;20501;-63
2023/08/17 12:14:32;;;;;;;5.10;4.70;;;30.80;99.90;;;;;;5029947;28;20056;-62
2023/08/17 12:17:04;;;;;;;6.18;4.00;;;30.80;99.90;;;;;;5027788;28;20472;-63
2023/08/17 12:19:30;;;;;;;4.88;4.57;;;30.80;99.90;;;;;;5012302;28;20042;-63
2023/08/17 12:22:02;;;;;;;4.63;4.23;;;30.70;99.90;;;;;;5030633;28;20073;-63
2023/08/17 12:24:37;;;;;;;4.83;4.37;;;30.70;99.90;;;;;;5030621;28;20501;-62
2023/08/17 12:27:09;;;;;;;4.50;4.10;;;30.80;99.90;;;;;;5028161;28;20071;-63
2023/08/17 12:29:53;;;;;;;4.55;4.15;;;30.80;99.90;;;;;;5012709;28;20470;-63
2023/08/17 12:32:25;;;;;;;4.97;3.72;;;31.00;99.50;;;;;;5007032;28;20049;-63
2023/08/17 12:34:57;;;;;;;4.60;4.22;;;31.10;99.80;;;;;;5028606;28;20061;-63
2023/08/17 12:37:29;;;;;;;6.17;4.23;;;31.30;99.50;;;;;;5026571;28;20548;-63
2023/08/17 12:40:00;;;;;;;4.63;4.20;;;31.40;97.50;;;;;;5030561;28;20057;-63
2023/08/17 12:42:32;;;;;;;4.22;3.83;;;31.50;97.50;;;;;;5015338;28;20049;-62
2023/08/17 12:45:04;;;;;;;6.97;4.28;;;31.60;96.10;;;;;;5034665;28;20041;-63
2023/08/17 12:47:31;;;;;;;4.07;3.78;;;31.60;95.20;;;;;;5034626;28;20037;-63
2023/08/17 12:50:03;;;;;;;4.07;3.60;;;31.50;94.30;;;;;;5000224;28;20476;-62
2023/08/17 12:52:35;;;;;;;5.95;3.40;;;31.50;93.20;;;;;;5032954;28;20276;-63
2023/08/17 12:55:07;;;;;;;4.57;3.67;;;31.60;92.80;;;;;;5033499;28;20057;-62
2023/08/17 12:57:39;;;;;;;3.63;3.28;;;31.60;92.50;;;;;;5016697;28;20555;-62
2023/08/17 13:00:11;;;;;;;4.22;3.45;;;31.60;92.30;;;;;;5015284;28;20040;-63
2023/08/17 13:02:46;;;;;;;5.50;3.22;;;31.80;93.30;;;;;;5034101;28;20042;-63
2023/08/17 13:05:18;;;;;;;4.28;3.67;;;31.80;91.90;;;;;;5030228;28;20041;-63
2023/08/17 13:07:49;;;;;;;5.23;3.20;;;31.90;92.20;;;;;;5020584;28;20065;-63